Weather at Stinson Municipal Airport

Public forecast

Using degrees Fahrenheit for public forecast. Weather courtesy of forecast.io.

Current aviation weather report (METAR) for Stinson Municipal Airport

Retrieved 2021/11/29 08:53 UTC (47 minutes ago):

KSSF 290853Z AUTO 00000KT CLR 08/05 A3022 RMK AO2 SLP231 T00780050 55009

Aviation forecast (TAF) for Stinson Municipal Airport

Retrieved 2021/11/29 06:24 UTC (3 hours ago):

TAF KSSF 290522Z 2906/3006 35003KT P6SM SKC FM291800 18004KT P6SM BKN250